x

Santa Monica Basin - 33nm Wsw Of Santa Monica, Ca (46025) Weather Station

1:20am - Sat 23rd Sep 2017 All times are PDT. -7 hours from GMT.

  • Wind
    11mph, 13mph gusts
  • Sea Temp 68°f
  • Sea Pressure 1009mb
  • Santa Monica Basin - 33nm Wsw Of Santa Monica, Ca
  • Santa Monica Basin - 33nm Wsw Of Santa Monica, Ca

More Historic Weather Station data

Upgrade to MSW Pro to gain access to the past 30 days of data for over 8000 Wavebouys and Weather Stations around the globe.

Join

Comparision Forecast

View Surf forecast
   
Sat 09/23 1:20am  -   -   -  11 13 mph 1009mb 68f
1:10am  -   -   -  11 16 mph 1008.8mb 68f
1:00am  -   -   -  7 9 mph 1008.8mb 68f
12:50am 3.5ft 5s 5s 7 11 mph 1008.9mb 68f
12:40am 3.5ft  -  5s 7 11 mph 1008.9mb 68f
12:30am  -   -   -  7 9 mph 1009mb -
12:20am  -   -   -  7 11 mph 1008.9mb 68f
12:10am  -   -   -  7 11 mph 1008.8mb -
12:00am  -   -   -  7 7 mph 1008.8mb 68f
Fri 09/22 11:50pm 3.5ft 6s 5s 4 9 mph 1008.8mb 68f
11:40pm 3.5ft  -  5s 4 7 mph 1008.8mb 68f
11:30pm  -   -   -  4 7 mph 1008.8mb 68f
11:20pm  -   -   -  7 9 mph 1008.9mb 68f
11:10pm  -   -   -  7 9 mph 1009mb 68f
11:00pm  -   -   -  7 9 mph 1009mb 68f
10:50pm 4ft 6s 5s 7 11 mph 1009.1mb 68f
10:40pm 4ft  -  5s 9 11 mph 1009.1mb 68f
10:30pm  -   -   -  11 13 mph 1009.1mb 68f
10:20pm  -   -   -  11 13 mph 1009.1mb 68f
10:10pm  -   -   -  11 13 mph 1009.1mb 68f
10:00pm  -   -   -  11 13 mph 1009.2mb 68f
9:50pm 4.5ft 6s 5s 9 13 mph 1009.2mb 68f
9:40pm  -   -   -  9 13 mph 1009.2mb 68f
9:30pm  -   -   -  11 16 mph 1009.3mb 68f
9:20pm  -   -   -  11 13 mph 1009.3mb 68f
9:10pm  -   -   -  11 13 mph 1009.3mb 68f
9:00pm  -   -   -  11 16 mph 1009.3mb 68f
8:50pm 4.5ft 6s 5s 11 16 mph 1009.4mb 68f
8:40pm 4.5ft  -  5s 7 11 mph 1009.3mb 68f
8:30pm  -   -   -  7 11 mph 1009.3mb 68f
8:20pm  -   -   -  9 16 mph 1009.3mb 68f
8:10pm  -   -   -  16 22 mph 1009.3mb 68f
8:00pm  -   -   -  18 22 mph 1009.2mb 68f
7:50pm 4.5ft 5s 5s 18 22 mph 1009.2mb 69f
7:40pm  -   -   -  18 22 mph 1009.1mb 69f
7:30pm  -   -   -  18 22 mph 1009.2mb -
7:20pm  -   -   -  18 20 mph 1009.2mb 69f
7:10pm  -   -   -  18 20 mph 1009.1mb 69f
7:00pm  -   -   -  18 20 mph 1009.1mb 69f
6:50pm 3.5ft 6s 5s 18 20 mph 1009.1mb 69f
6:40pm 3.5ft  -  5s 18 20 mph 1009.2mb 69f
6:30pm  -   -   -  16 20 mph 1009.2mb 69f
6:20pm  -   -   -  13 18 mph 1009.2mb 69f
6:10pm  -   -   -  13 16 mph 1009.4mb -
6:00pm  -   -   -  11 13 mph 1009.4mb 69f
5:50pm 2.5ft 11s 5s 11 13 mph 1009.4mb 69f
5:40pm 2.5ft  -  5s 7 11 mph 1009.5mb 69f
5:30pm  -   -   -  7 11 mph 1009.6mb 69f
5:20pm  -   -   -  7 9 mph 1009.7mb -
5:10pm  -   -   -  7 9 mph 1009.8mb 69f
5:00pm  -   -   -  7 9 mph 1009.9mb 69f
4:50pm 2.5ft 7s 5s 7 9 mph 1009.9mb -
4:40pm 2.5ft  -  5s 7 9 mph 1009.9mb 69f
4:20pm  -   -   -  9 11 mph 1010mb 69f
4:10pm  -   -   -  9 11 mph 1010mb 69f
4:00pm  -   -   -  7 9 mph 1010.1mb 69f
3:50pm 3ft 11s 5s 7 9 mph 1010.1mb 69f
3:40pm  -   -   -  4 9 mph 1010.2mb 69f
3:30pm  -   -   -  4 7 mph 1010.2mb 69f
3:20pm  -   -   -  4 7 mph 1010.3mb 69f
3:10pm  -   -   -  7 9 mph 1010.5mb 69f
3:00pm  -   -   -  7 9 mph 1010.5mb 69f
2:50pm 3ft 6s 5s 7 11 mph 1010.6mb 69f
2:40pm 3ft  -  5s 7 9 mph 1010.7mb 69f
2:30pm  -   -   -  9 11 mph 1010.7mb 69f
2:20pm  -   -   -  7 9 mph 1010.8mb 69f
2:10pm  -   -   -  7 11 mph 1010.8mb 69f
2:00pm  -   -   -  7 9 mph 1010.9mb 69f
1:50pm 3ft 11s 5s 7 9 mph 1011mb 69f
1:40pm 3ft  -  5s 7 9 mph 1011.1mb 68f
1:30pm  -   -   -  4 7 mph 1011.1mb 68f
1:20pm  -   -   -  2 4 mph 1011.2mb 68f
1:10pm  -   -   -  2 4 mph 1011.4mb 68f
1:00pm  -   -   -  2 7 mph 1011.6mb 68f
12:50pm 3ft  -  5s 2 4 mph 1011.6mb 68f
12:40pm 3ft 5s 5s  -  mph - -
12:30pm  -   -   -   -  2 mph 1011.6mb 68f
12:20pm  -   -   -  2 4 mph 1011.6mb 68f
12:10pm  -   -   -  2 4 mph 1011.7mb 68f
12:00pm  -   -   -  2 4 mph 1011.7mb 68f
11:50am 3.5ft 6s 5s 2 4 mph 1011.8mb 68f
11:40am 3.5ft  -  5s 4 7 mph 1011.8mb 68f
11:30am  -   -   -  4 7 mph 1011.8mb 68f
11:20am  -   -   -  4 4 mph 1011.9mb 68f
11:10am  -   -   -  4 7 mph 1012mb 68f
11:00am  -   -   -  4 7 mph 1012.1mb 68f
10:50am 3.5ft 11s 5s 7 7 mph 1012.2mb 68f
10:40am 3.5ft  -  5s 4 7 mph 1012.2mb 68f
10:30am  -   -   -  4 7 mph 1012.3mb 68f
10:20am  -   -   -  7 9 mph 1012.3mb 68f
10:10am  -   -   -  7 9 mph 1012.2mb 68f
10:00am  -   -   -  7 9 mph 1012.2mb 68f
9:50am 4ft 6s 5s 7 9 mph 1012.1mb 67f
9:40am 4ft  -  5s 7 9 mph 1012.1mb -
9:30am  -   -   -  7 11 mph 1011.9mb -
9:20am  -   -   -  7 11 mph 1011.8mb 67f
9:10am  -   -   -  9 11 mph 1011.7mb 67f
9:00am  -   -   -  9 11 mph 1011.6mb 67f
8:50am 4.5ft 6s 5s 9 11 mph 1011.6mb -
8:40am  -   -   -  9 11 mph 1011.5mb 67f
8:30am  -   -   -  11 13 mph 1011.4mb 67f
8:20am  -   -   -  11 13 mph 1011.3mb 67f
8:10am  -   -   -  11 13 mph 1011.3mb 67f
8:00am  -   -   -  9 11 mph 1011.3mb 67f
7:50am 4.5ft 7s 5s 9 13 mph 1011.1mb 67f
7:40am 4.5ft  -  5s 9 13 mph 1011.1mb 67f
7:30am  -   -   -  9 13 mph 1011.1mb 67f
7:20am  -   -   -  9 13 mph 1011mb 67f
7:10am  -   -   -  9 11 mph 1011mb 67f
7:00am  -   -   -  9 11 mph 1010.8mb 67f
6:50am 4.5ft 6s 5s 11 13 mph 1010.7mb 67f
6:40am 4.5ft  -  5s 9 13 mph 1010.7mb 67f
6:30am  -   -   -  9 11 mph 1010.5mb 67f
6:20am  -   -   -  9 13 mph 1010.4mb 67f
6:10am  -   -   -  9 11 mph 1010.3mb 67f
6:00am  -   -   -  9 11 mph 1010.3mb 67f
5:50am 4.5ft 6s 5s 9 11 mph 1010.2mb 67f
5:40am 4.5ft  -  5s 9 11 mph 1010mb 67f
5:30am  -   -   -  9 11 mph 1010mb 67f
5:20am  -   -   -  7 9 mph 1009.9mb 66f
5:10am  -   -   -  7 11 mph 1010mb 66f
5:00am  -   -   -  9 11 mph 1010mb 66f
4:50am 4.5ft 6s 5s 9 11 mph 1009.9mb 66f
4:40am 4.5ft  -  5s 7 11 mph 1009.9mb 66f
4:30am  -   -   -  7 11 mph 1009.9mb 66f
4:20am  -   -   -  7 9 mph 1009.7mb 66f
4:10am  -   -   -  7 11 mph 1009.7mb 66f
4:00am  -   -   -  9 11 mph 1009.6mb 66f
3:50am 5ft 7s 6s 9 11 mph 1009.6mb 66f
3:40am 5ft  -  6s 11 13 mph 1009.6mb 66f
3:30am  -   -   -  11 13 mph 1009.6mb 66f
3:20am  -   -   -  11 13 mph 1009.6mb 67f
3:10am  -   -   -  9 11 mph 1009.7mb 67f
3:00am  -   -   -  11 13 mph 1009.7mb 67f
2:50am 5ft 7s 6s 11 13 mph 1009.8mb 67f
2:40am  -   -   -  11 16 mph 1009.9mb 67f
2:30am  -   -   -  11 13 mph 1009.9mb 67f
2:20am  -   -   -  11 13 mph 1009.9mb 67f
2:10am  -   -   -  11 16 mph 1009.9mb 67f
2:00am  -   -   -  13 16 mph 1009.9mb 67f
1:50am 5ft 7s 5s 13 16 mph 1009.8mb 67f
1:40am 5ft  -  5s 13 16 mph 1009.8mb 67f
1:30am  -   -   -  13 16 mph 1009.7mb 67f
1:20am  -   -   -  13 16 mph 1009.5mb 67f
1:10am  -   -   -  13 18 mph 1009.5mb 67f
1:00am  -   -   -  16 18 mph 1009.4mb 67f
12:50am 6ft 7s 6s 18 22 mph 1009.5mb 67f
12:40am 6ft  -  6s 18 20 mph 1009.5mb 67f
12:30am  -   -   -  18 20 mph 1009.5mb 67f
12:20am  -   -   -  18 22 mph 1009.4mb 67f
12:10am  -   -   -  18 22 mph 1009.4mb 67f
12:00am  -   -   -  18 22 mph 1009.3mb 67f
Thu 09/21 11:50pm 6ft 7s 5s 20 22 mph 1009.4mb 67f
11:40pm 6ft  -  5s 20 25 mph 1009.3mb 67f
11:30pm  -   -   -  20 25 mph 1009.4mb 67f
11:20pm  -   -   -  20 25 mph 1009.4mb 67f
11:10pm  -   -   -  22 27 mph 1009.3mb 67f
11:00pm  -   -   -  20 25 mph 1009.3mb 67f
10:50pm 6ft 7s 5s 20 22 mph 1009.4mb 67f
10:40pm  -   -   -  16 22 mph 1009.5mb 67f
10:30pm  -   -   -  13 16 mph 1009.5mb 67f
10:20pm  -   -   -  16 20 mph 1009.6mb 67f
10:10pm  -   -   -  18 22 mph 1009.4mb 67f
10:00pm  -   -   -  20 25 mph 1009.5mb -
9:50pm 7ft 7s 5s 20 27 mph 1009.4mb 67f
9:40pm 7ft  -  5s 22 27 mph 1009.5mb 67f
9:30pm  -   -   -  25 29 mph 1009.4mb 68f
9:20pm  -   -   -  22 29 mph 1009.3mb 68f
9:10pm  -   -   -  22 29 mph 1009.4mb 68f
9:00pm  -   -   -  25 29 mph 1009.3mb 68f
8:50pm 7ft 7s 5s 25 31 mph 1009.3mb 68f
8:40pm 7ft  -  5s 25 31 mph 1009.4mb 68f
8:30pm  -   -   -  25 31 mph 1009.4mb 68f
8:20pm  -   -   -  25 31 mph 1009.2mb 68f
8:10pm  -   -   -  25 31 mph 1009.1mb 68f
8:00pm  -   -   -  25 31 mph 1009.1mb 68f
7:50pm 7ft 6s 5s 25 31 mph 1009.1mb 68f
7:40pm 7ft  -  5s 27 34 mph 1009mb 68f
7:30pm  -   -   -  27 31 mph 1009mb 68f
7:20pm  -   -   -  27 34 mph 1008.9mb 68f
7:10pm  -   -   -  27 34 mph 1008.9mb -
7:00pm  -   -   -  27 34 mph 1009mb 68f
6:50pm 6.5ft 7s 5s 25 31 mph 1008.9mb 68f
6:40pm 6.5ft  -  5s 22 31 mph 1009.1mb 68f
6:30pm  -   -   -  20 27 mph 1009.1mb 68f
6:20pm  -   -   -  18 25 mph 1009.2mb 68f
6:10pm  -   -   -  20 25 mph 1009.2mb 68f
6:00pm  -   -   -  20 25 mph 1009.1mb 68f
5:50pm 6.5ft 7s 5s 20 25 mph 1009.1mb 68f
5:40pm  -   -   -  20 25 mph 1009.1mb 68f
5:30pm  -   -   -  20 25 mph 1009.1mb 68f
5:20pm  -   -   -  20 25 mph 1009.1mb 68f
5:10pm  -   -   -  20 25 mph 1009.1mb -
5:00pm  -   -   -  20 25 mph 1009.1mb 68f
4:50pm 6ft 6s 5s 22 27 mph 1009.1mb 68f
4:40pm 6ft  -  5s 22 27 mph 1009.1mb 68f
4:30pm  -   -   -  22 27 mph 1009.1mb 68f
4:20pm  -   -   -  22 27 mph 1009.1mb 68f
4:10pm  -   -   -  22 27 mph 1009.1mb 68f
4:00pm  -   -   -  22 27 mph 1009.2mb 68f
3:50pm 6ft 6s 5s 22 27 mph 1009.3mb 68f
3:40pm  -   -   -  20 27 mph 1009.4mb 68f
3:30pm  -   -   -  22 27 mph 1009.5mb -
3:20pm  -   -   -  22 27 mph 1009.5mb -
3:10pm  -   -   -  22 29 mph 1009.6mb 68f
3:00pm  -   -   -  25 29 mph 1009.6mb 69f
2:50pm 6ft 6s 5s 22 29 mph 1009.9mb 69f
2:40pm 6ft  -  5s 25 29 mph 1009.7mb 69f
2:30pm  -   -   -  25 29 mph 1009.7mb 69f
2:20pm  -   -   -  25 31 mph 1009.9mb 69f
2:10pm  -   -   -  25 31 mph 1010mb 69f
2:00pm  -   -   -  27 31 mph 1010mb 69f
1:50pm 6ft 6s 5s 27 34 mph 1010.1mb 69f
1:40pm  -   -   -  25 31 mph 1010.3mb 69f
1:30pm  -   -   -  25 29 mph 1010.4mb 69f
1:20pm  -   -   -  22 29 mph 1010.5mb 69f
1:10pm  -   -   -  25 29 mph 1010.5mb 69f
1:00pm  -   -   -  25 29 mph 1010.5mb 69f
12:50pm 5ft 6s 5s 22 27 mph 1010.6mb 69f
12:40pm 5ft  -  5s 22 25 mph 1010.8mb 69f
12:30pm  -   -   -  20 25 mph 1010.9mb 69f
12:20pm  -   -   -  20 25 mph 1010.9mb 69f
12:10pm  -   -   -  18 22 mph 1011.1mb 69f
12:00pm  -   -   -  18 22 mph 1011.3mb 69f
11:50am 4.5ft 5s 4s 18 22 mph 1011.3mb 69f
11:40am 4.5ft  -  4s 18 22 mph 1011.4mb 69f
11:30am  -   -   -  18 20 mph 1011.4mb 69f
11:20am  -   -   -  18 22 mph 1011.5mb 69f
11:10am  -   -   -  18 22 mph 1011.6mb -
11:00am  -   -   -  18 22 mph 1011.5mb 69f
10:50am 4ft 6s 5s 18 22 mph 1011.7mb 69f
10:40am 4ft  -  5s 18 20 mph 1011.7mb 69f
10:30am  -   -   -  13 20 mph 1011.7mb 69f
10:20am  -   -   -  13 18 mph 1011.7mb 69f
10:10am  -   -   -  16 20 mph 1011.7mb 69f
10:00am  -   -   -  18 22 mph 1011.6mb 69f
9:50am 3.5ft 11s 5s 18 22 mph 1011.5mb 69f
9:40am 3.5ft  -  5s 16 18 mph 1011.5mb 69f
9:30am  -   -   -  16 20 mph 1011.3mb 68f
9:20am  -   -   -  16 18 mph 1011.3mb 68f
9:10am  -   -   -  16 18 mph 1011.3mb 68f
9:00am  -   -   -  13 18 mph 1011.1mb 68f
8:50am 3.5ft 5s 5s 13 16 mph 1011mb -
8:40am 3.5ft  -  5s 13 16 mph 1011mb 68f
8:30am  -   -   -  13 16 mph 1010.9mb 68f
8:20am  -   -   -  13 16 mph 1010.8mb 68f
8:10am  -   -   -  16 18 mph 1010.9mb 68f
8:00am  -   -   -  13 16 mph 1010.9mb 68f
7:50am 3.5ft 6s 5s 13 16 mph 1010.8mb 68f
7:40am 3.5ft  -  5s 13 16 mph 1010.8mb 68f
7:30am  -   -   -  11 16 mph 1010.8mb 68f
7:20am  -   -   -  4 7 mph 1010.7mb 68f
7:10am  -   -   -  4 7 mph 1010.5mb 68f
7:00am  -   -   -  4 4 mph 1010.5mb 68f
6:50am 3.5ft 6s 5s 4 7 mph 1010.4mb 68f
6:40am 3.5ft  -  5s 7 9 mph 1010.3mb 68f
6:30am  -   -   -  7 9 mph 1010.2mb 68f
6:20am  -   -   -  7 9 mph 1010.1mb 68f
6:10am  -   -   -  4 7 mph 1010mb -
6:00am  -   -   -  4 7 mph 1009.9mb 68f
5:50am 3ft 5s 5s 4 7 mph 1009.9mb 68f
5:40am  -   -   -  4 7 mph 1010mb 68f
5:30am  -   -   -  4 7 mph 1009.9mb 68f
5:20am  -   -   -  2 7 mph 1009.9mb -
5:10am  -   -   -  4 7 mph 1009.7mb 68f
5:00am  -   -   -  4 7 mph 1009.7mb 68f
4:50am 3ft 13s 5s 4 7 mph 1009.6mb 68f
4:40am 3ft  -  5s 4 7 mph 1009.7mb 68f
4:30am  -   -   -  7 9 mph 1009.7mb 68f
4:20am  -   -   -  7 9 mph 1009.7mb 68f
4:10am  -   -   -  7 9 mph 1009.8mb 68f
4:00am  -   -   -  7 9 mph 1009.7mb 68f
3:50am 3ft 12s 5s 7 11 mph 1009.6mb 68f
3:40am 3ft  -  5s 7 9 mph 1009.7mb 68f
3:30am  -   -   -  7 9 mph 1009.7mb 68f
3:20am  -   -   -  7 11 mph 1009.6mb 68f
3:10am  -   -   -  9 11 mph 1009.6mb 68f
3:00am  -   -   -  7 9 mph 1009.8mb 68f
2:50am 3ft 6s 5s 7 9 mph 1009.9mb 68f
2:40am 3ft  -  5s 7 9 mph 1010.2mb 68f
2:30am  -   -   -  7 9 mph 1010.2mb 68f
2:20am  -   -   -  4 7 mph 1010.3mb 68f
2:10am  -   -   -  7 9 mph 1010.3mb 68f
2:00am  -   -   -  7 9 mph 1010.4mb 68f
1:50am 3ft 12s 5s 9 11 mph 1010.3mb 68f
1:40am 3ft  -  5s 7 9 mph 1010.3mb 68f
1:30am  -   -   -  7 9 mph 1010.2mb 68f
1:20am  -   -   -  7 9 mph 1010.2mb 68f
1:10am  -   -   -  7 9 mph 1010.2mb 68f
1:00am  -   -   -  4 7 mph 1010.2mb 69f
12:50am 3ft 12s 5s 7 7 mph 1010.2mb 69f
12:40am  -   -   -  9 11 mph 1010.2mb 69f
12:30am  -   -   -  9 9 mph 1010.2mb 69f
12:20am  -   -   -  9 11 mph 1010.3mb -
12:10am  -   -   -  9 9 mph 1010.3mb 69f
12:00am  -   -   -  7 9 mph 1010.3mb 69f
Wed 09/20 11:50pm 3ft 8s 5s 4 9 mph 1010.3mb 69f
11:40pm 3ft  -  5s 4 4 mph 1010.3mb 69f
11:30pm  -   -   -  4 4 mph 1010.2mb 69f
11:20pm  -   -   -  4 4 mph 1010.3mb 69f
11:10pm  -   -   -  4 7 mph 1010.3mb 69f
11:00pm  -   -   -  7 9 mph 1010.3mb 69f
10:50pm 3ft 12s 5s 7 9 mph 1010.5mb 69f
10:40pm  -   -   -  7 9 mph 1010.4mb 69f
10:30pm  -   -   -  9 9 mph 1010.5mb 69f
10:20pm  -   -   -  9 11 mph 1010.5mb 69f
10:10pm  -   -   -  9 11 mph 1010.6mb 69f
10:00pm  -   -   -  9 11 mph 1010.7mb 69f
9:50pm 2.5ft 11s 5s 11 13 mph 1010.7mb 69f
9:40pm 2.5ft  -  5s 11 11 mph 1010.8mb 69f
9:30pm  -   -   -  9 11 mph 1010.8mb 69f
9:20pm  -   -   -  9 11 mph 1010.7mb 69f
9:10pm  -   -   -  11 13 mph 1010.7mb 69f
9:00pm  -   -   -  11 13 mph 1010.7mb 69f
8:50pm 2.5ft 12s 6s 11 13 mph 1010.7mb 69f
8:40pm 2.5ft  -  6s 11 13 mph 1010.7mb 69f
8:30pm  -   -   -  9 13 mph 1010.7mb 69f
8:20pm  -   -   -  9 11 mph 1010.6mb 69f
8:10pm  -   -   -  9 11 mph 1010.5mb 69f
8:00pm  -   -   -  11 13 mph 1010.4mb 69f
7:50pm 2.5ft 10s 6s 11 13 mph 1010.4mb 70f
7:40pm  -   -   -  11 13 mph 1010.2mb 69f
7:30pm  -   -   -  9 11 mph 1010.2mb 69f
7:20pm  -   -   -  9 11 mph 1010.2mb 70f
7:10pm  -   -   -  9 11 mph 1010.2mb 70f
7:00pm  -   -   -  9 11 mph 1010.2mb -
6:50pm 2.5ft 11s 6s 9 11 mph 1010.2mb 70f
6:40pm 2.5ft  -  6s 9 11 mph 1010.3mb 70f
6:30pm  -   -   -  9 11 mph 1010.4mb 70f
6:20pm  -   -   -  9 11 mph 1010.4mb 70f
6:10pm  -   -   -  9 9 mph 1010.4mb 70f
6:00pm  -   -   -  9 11 mph 1010.5mb -
5:50pm 2.5ft 11s 6s 7 9 mph 1010.5mb 70f
5:40pm 2.5ft  -  6s 9 9 mph 1010.5mb 71f
5:30pm  -   -   -  7 9 mph 1010.5mb 70f
5:20pm  -   -   -  7 9 mph 1010.7mb 71f
5:10pm  -   -   -  7 9 mph 1010.7mb 71f
5:00pm  -   -   -  7 9 mph 1010.8mb 71f
4:50pm 2.5ft 11s 6s 7 9 mph 1010.9mb -
4:40pm 2.5ft  -  6s 7 7 mph 1010.9mb 70f
4:30pm  -   -   -  7 9 mph 1011.1mb 70f
4:20pm  -   -   -  4 9 mph 1011.1mb 70f
4:10pm  -   -   -  7 7 mph 1011.1mb 70f
4:00pm  -   -   -  4 7 mph 1011.1mb 70f
3:50pm 2.5ft 10s 6s 4 7 mph 1011.1mb 69f
3:40pm  -   -   -  4 7 mph 1011.3mb 69f
3:30pm  -   -   -  4 7 mph 1011.3mb 69f
3:20pm  -   -   -  4 7 mph 1011.3mb 69f
3:10pm  -   -   -  4 7 mph 1011.5mb 69f
3:00pm  -   -   -  4 7 mph 1011.6mb 69f
2:50pm 3ft 11s 6s 4 7 mph 1011.6mb 69f
2:40pm 3ft  -  6s 2 4 mph 1011.6mb 69f
2:30pm  -   -   -  2 2 mph 1011.6mb 68f
2:20pm  -   -   -   -  2 mph 1011.7mb 69f
2:10pm  -   -   -   -  2 mph 1011.8mb 68f
2:00pm  -   -   -   -  2 mph 1011.8mb 68f
1:50pm 3ft 9s 6s  -  2 mph 1011.9mb 68f
1:40pm 3ft  -  6s  -  2 mph 1012mb 68f
1:30pm  -   -   -   -  4 mph 1012.1mb 69f
1:20pm  -   -   -   -  0 mph 1012.1mb 68f
1:10pm  -   -   -   -  2 mph 1012.1mb 68f
1:00pm  -   -   -   -  2 mph 1012.2mb 68f
12:50pm 2.5ft 10s 6s  -  2 mph 1012.3mb 68f
12:40pm  -   -   -  2 2 mph 1012.4mb 68f
12:30pm  -   -   -  2 2 mph 1012.4mb 68f
12:20pm  -   -   -  2 4 mph 1012.5mb 68f
12:10pm  -   -   -  2 4 mph 1012.5mb 67f
12:00pm  -   -   -  4 4 mph 1012.5mb 67f
11:50am 2.5ft 10s 6s 4 4 mph 1012.6mb 67f
11:40am  -   -   -  4 4 mph 1012.6mb 67f
11:30am  -   -   -  4 7 mph 1012.7mb 67f
11:20am  -   -   -  4 7 mph 1012.8mb 67f
11:10am  -   -   -  4 7 mph 1012.7mb 67f
11:00am  -   -   -  4 7 mph 1012.7mb 67f
10:50am 2.5ft 11s 6s 4 7 mph 1012.7mb -
10:40am 2.5ft  -  6s 4 4 mph 1012.7mb 67f
10:30am  -   -   -  4 4 mph 1012.7mb 67f
10:20am  -   -   -  2 4 mph 1012.7mb 67f
10:10am  -   -   -  4 4 mph 1012.6mb 67f
10:00am  -   -   -  4 7 mph 1012.6mb 67f
9:50am 2.5ft 8s 6s 7 7 mph 1012.5mb 67f
9:40am  -   -   -  7 7 mph 1012.4mb 67f
9:30am  -   -   -  7 9 mph 1012.4mb 67f
9:20am  -   -   -  7 9 mph 1012.3mb 67f
9:10am  -   -   -  4 7 mph 1012.2mb 67f
9:00am  -   -   -  4 4 mph 1012.1mb -
8:50am 2.5ft 9s 6s 4 4 mph 1012mb 67f
8:40am 2.5ft  -  6s 4 4 mph 1012mb 67f
8:30am  -   -   -  4 4 mph 1011.9mb 67f
8:20am  -   -   -  2 4 mph 1011.7mb 66f
8:10am  -   -   -  4 4 mph 1011.6mb 66f
8:00am  -   -   -  4 4 mph 1011.5mb 66f
7:50am 2.5ft 10s 6s 4 7 mph 1011.4mb 66f
7:40am 2.5ft  -  6s 4 7 mph 1011.3mb 66f
7:30am  -   -   -  4 7 mph 1011.3mb 66f
7:20am  -   -   -  4 7 mph 1011.2mb 66f
7:10am  -   -   -  4 7 mph 1011.1mb -
7:00am  -   -   -  4 7 mph 1011.1mb 66f
6:50am 2.5ft 7s 5s 4 7 mph 1011.1mb 66f
6:40am 2.5ft  -  5s 4 7 mph 1011.1mb 67f
6:30am  -   -   -  4 7 mph 1010.9mb 67f
6:20am  -   -   -  4 7 mph 1010.8mb 67f
6:10am  -   -   -  4 7 mph 1010.7mb 67f
6:00am  -   -   -  4 7 mph 1010.6mb -
5:50am 2.5ft 11s 5s 4 7 mph 1010.6mb 67f
5:40am  -   -   -  4 4 mph 1010.6mb 67f
5:30am  -   -   -  4 4 mph 1010.6mb 67f
5:20am  -   -   -  4 7 mph 1010.6mb 67f
5:10am  -   -   -  4 4 mph 1010.6mb 67f
5:00am  -   -   -  4 4 mph 1010.6mb 67f
4:50am 2.5ft 11s 5s 4 4 mph 1010.6mb -
4:40am 2.5ft  -  5s 4 4 mph 1010.6mb 67f
4:30am  -   -   -  4 4 mph 1010.6mb 67f
4:20am  -   -   -  2 4 mph 1010.6mb 67f
4:10am  -   -   -  2 4 mph 1010.6mb 67f
4:00am  -   -   -  2 4 mph 1010.7mb 67f
3:50am 2.5ft 9s 5s 2 4 mph 1010.7mb 67f
3:40am 2.5ft  -  5s 2 4 mph 1010.6mb 67f
3:30am  -   -   -  2 4 mph 1010.7mb 67f
3:20am  -   -   -  2 4 mph 1010.7mb 67f
3:10am  -   -   -  2 4 mph 1010.7mb 67f
3:00am  -   -   -  2 4 mph 1010.7mb 67f
2:50am 2.5ft 11s 5s 2 4 mph 1010.8mb -
2:40am 2.5ft  -  5s 2 4 mph 1010.9mb 67f
2:30am  -   -   -  2 4 mph 1011mb 67f
2:20am  -   -   -  2 4 mph 1011mb 67f
2:10am  -   -   -  2 4 mph 1011mb 67f
2:00am  -   -   -  2 2 mph 1011.1mb 67f
1:50am 2.5ft 11s 6s 2 2 mph 1011.2mb 67f
1:40am 2.5ft  -  6s 2 4 mph 1011.2mb 67f
1:30am  -   -   -  2 4 mph 1011.2mb 67f
1:20am  -   -   -  2 4 mph 1011.3mb -
1:10am  -   -   -  2 2 mph 1011.3mb 67f
1:00am  -   -   -  2 4 mph 1011.3mb 67f
12:50am 2.5ft 11s 6s 2 4 mph 1011.3mb 67f
12:40am  -   -   -  2 4 mph 1011.2mb 68f
12:30am  -   -   -  2 4 mph 1011.2mb 68f
12:20am  -   -   -  2 4 mph 1011.2mb 68f
12:10am  -   -   -  4 4 mph 1011.3mb -
12:00am  -   -   -  4 7 mph 1011.3mb 67f
Tue 09/19 11:50pm 2.5ft 7s 6s 2 4 mph 1011.3mb 68f
11:40pm 2.5ft  -  6s 4 4 mph 1011.5mb 68f
11:30pm  -   -   -  4 7 mph 1011.5mb -
11:20pm  -   -   -  4 7 mph 1011.5mb 68f
11:10pm  -   -   -  4 7 mph 1011.5mb 68f
11:00pm  -   -   -  4 7 mph 1011.5mb 68f
10:50pm 2.5ft 9s 5s 4 7 mph 1011.5mb 68f
10:40pm 2.5ft  -  5s 2 4 mph 1011.5mb 69f
10:30pm  -   -   -  2 4 mph 1011.4mb 69f
10:20pm  -   -   -  2 4 mph 1011.4mb 69f
10:10pm  -   -   -   -  2 mph 1011.5mb 69f
10:00pm  -   -   -  2 2 mph 1011.3mb 69f
9:50pm 2.5ft 5s 5s 2 4 mph 1011.3mb 69f
9:40pm  -   -   -  4 4 mph 1011.3mb 68f
9:30pm  -   -   -  4 4 mph 1011.3mb 68f
9:20pm  -   -   -  4 4 mph 1011.2mb 67f
9:10pm  -   -   -  4 4 mph 1011.2mb 67f
9:00pm  -   -   -  4 4 mph 1011.3mb 67f
8:50pm 2.5ft 10s 5s 4 9 mph 1011.2mb 67f
8:40pm 2.5ft  -  5s 7 9 mph 1011.3mb 67f
8:30pm  -   -   -  7 9 mph 1011.3mb 67f
8:20pm  -   -   -  7 9 mph 1011.2mb 67f
8:10pm  -   -   -  9 9 mph 1011.1mb 67f
8:00pm  -   -   -  9 9 mph 1011mb 67f
7:50pm 2.5ft 11s 5s 9 11 mph 1011mb 67f
7:40pm 2.5ft  -  5s 9 11 mph 1011mb -
7:30pm  -   -   -  9 11 mph 1010.9mb 67f
7:20pm  -   -   -  9 11 mph 1010.8mb 67f
7:10pm  -   -   -  9 11 mph 1010.7mb 67f
7:00pm  -   -   -  11 13 mph 1010.8mb 67f
6:50pm 2.5ft 11s 4s 11 13 mph 1011mb 67f
6:40pm 2.5ft  -  4s 11 13 mph 1011.1mb 67f
6:30pm  -   -   -  11 13 mph 1011.2mb 67f
6:20pm  -   -   -  11 13 mph 1011.2mb 67f
6:10pm  -   -   -  11 13 mph 1011.1mb 67f
6:00pm  -   -   -  11 13 mph 1011.1mb 67f
5:50pm 2.5ft 6s 5s 9 11 mph 1011.2mb 67f
5:40pm  -   -   -  9 11 mph 1011.3mb 67f
5:30pm  -   -   -  9 11 mph 1011.3mb 68f
5:20pm  -   -   -  9 9 mph 1011.3mb 68f
5:10pm  -   -   -  9 11 mph 1011.3mb 68f
5:00pm  -   -   -  11 11 mph 1011.4mb 68f
4:50pm 2.5ft 11s 5s 9 11 mph 1011.3mb 68f
4:40pm 2.5ft  -  5s 9 11 mph 1011.4mb 68f
4:30pm  -   -   -  9 11 mph 1011.4mb 68f
4:20pm  -   -   -  9 11 mph 1011.5mb 68f
4:10pm  -   -   -  9 11 mph 1011.5mb 68f
4:00pm  -   -   -  9 11 mph 1011.6mb 68f
3:50pm 2.5ft 11s 5s 9 11 mph 1011.7mb -
3:40pm  -   -   -  9 9 mph 1011.8mb 68f
3:30pm  -   -   -  9 9 mph 1011.9mb 68f
3:20pm  -   -   -  9 9 mph 1011.9mb 67f
3:10pm  -   -   -  7 9 mph 1012mb 67f
3:00pm  -   -   -  7 7 mph 1012.1mb 67f
2:50pm 2.5ft 11s 6s 7 7 mph 1012.1mb 67f
2:40pm  -   -   -  7 9 mph 1012.3mb 67f
2:30pm  -   -   -  7 9 mph 1012.3mb 67f
2:20pm  -   -   -  7 9 mph 1012.4mb 67f
2:10pm  -   -   -  7 9 mph 1012.5mb 67f
2:00pm  -   -   -  4 7 mph 1012.6mb 67f
1:50pm 2.5ft  -  5s 4 4 mph 1012.7mb -
1:40pm 2.5ft 11s  -   -  mph - 67f
1:30pm  -   -   -  4 4 mph 1012.9mb 67f
1:20pm  -   -   -  4 4 mph 1012.9mb 67f
1:10pm  -   -   -  4 7 mph 1013mb 67f
1:00pm  -   -   -   -  2 mph 1013.1mb 67f
12:50pm 2.5ft 6s 5s  -  0 mph 1013.2mb 66f
12:40pm 2.5ft  -  5s 2 4 mph 1013.3mb 66f
12:30pm  -   -   -  4 4 mph 1013.4mb 66f
12:20pm  -   -   -  2 4 mph 1013.4mb 66f
12:10pm  -   -   -   -  2 mph 1013.4mb 67f
12:00pm  -   -   -   -  2 mph 1013.5mb 67f
11:50am 2.5ft 11s 6s  -  2 mph 1013.6mb 67f
11:40am 2.5ft  -  6s 2 2 mph 1013.6mb 66f
11:30am  -   -   -  2 2 mph 1013.7mb 66f
11:20am  -   -   -  2 2 mph 1013.8mb 66f
11:10am  -   -   -  2 4 mph 1013.8mb 66f
11:00am  -   -   -  2 4 mph 1013.8mb 66f
10:50am 2.5ft 12s 6s 4 4 mph 1013.8mb 66f
10:40am  -   -   -  2 4 mph 1013.8mb 66f
10:30am  -   -   -  2 4 mph 1013.8mb 66f
10:20am  -   -   -  2 4 mph 1013.7mb 66f
10:10am  -   -   -  4 4 mph 1013.8mb 66f
10:00am  -   -   -  4 4 mph 1013.7mb 67f
9:50am 2.5ft 7s 6s 4 4 mph 1013.7mb 67f
9:40am 2.5ft  -  6s 4 7 mph 1013.6mb 67f